createdAt,value
2022-10-17T00:01:42.806Z,21.52
2022-10-17T00:04:09.591Z,21.59
2022-10-17T00:06:36.407Z,21.66
2022-10-17T00:09:03.177Z,21.73
2022-10-17T00:11:29.955Z,21.70
2022-10-17T00:13:56.740Z,21.95
2022-10-17T00:16:23.498Z,21.92
2022-10-17T00:18:50.253Z,21.91
2022-10-17T00:21:17.054Z,21.84
2022-10-17T00:23:43.812Z,19.04
2022-10-17T00:26:10.578Z,17.88
2022-10-17T00:28:37.380Z,18.64
2022-10-17T00:31:04.226Z,19.72
2022-10-17T00:33:31.253Z,20.51
2022-10-17T00:35:58.025Z,20.97
2022-10-17T00:38:24.780Z,21.19
2022-10-17T00:40:51.550Z,21.40
2022-10-17T00:43:18.370Z,21.51
2022-10-17T00:45:45.118Z,21.45
2022-10-17T00:48:11.972Z,21.68
2022-10-17T00:50:38.753Z,21.86
2022-10-17T00:53:05.552Z,21.84
2022-10-17T00:55:32.307Z,21.80
2022-10-17T00:57:59.168Z,21.95
2022-10-17T01:00:25.906Z,21.95
2022-10-17T01:02:52.658Z,22.09
2022-10-17T01:05:19.476Z,19.09
2022-10-17T01:07:46.236Z,17.92
2022-10-17T01:10:13.026Z,18.91
2022-10-17T01:12:39.864Z,20.18
2022-10-17T01:15:06.611Z,20.80
2022-10-17T01:17:33.354Z,21.15
2022-10-17T01:20:00.226Z,21.45
2022-10-17T01:22:27.401Z,21.54
2022-10-17T01:24:54.501Z,21.78
2022-10-17T01:27:21.301Z,21.72
2022-10-17T01:29:48.102Z,21.86
2022-10-17T01:32:14.899Z,21.89
2022-10-17T01:34:41.685Z,21.91
2022-10-17T01:37:08.461Z,21.90
2022-10-17T01:39:36.969Z,21.72
2022-10-17T01:42:05.249Z,18.71
2022-10-17T01:44:31.997Z,17.79
2022-10-17T01:46:58.755Z,18.75
2022-10-17T01:49:25.712Z,19.74
2022-10-17T01:51:52.516Z,20.54
2022-10-17T01:54:19.264Z,21.16
2022-10-17T01:56:46.018Z,21.24
2022-10-17T01:59:12.763Z,21.24
2022-10-17T02:01:39.542Z,21.35
2022-10-17T02:04:06.476Z,21.68
2022-10-17T02:06:33.229Z,21.67
2022-10-17T02:08:59.972Z,21.69
2022-10-17T02:11:26.772Z,21.77
2022-10-17T02:13:53.564Z,21.86
2022-10-17T02:16:20.306Z,22.03
2022-10-17T02:18:47.093Z,22.06
2022-10-17T02:21:13.907Z,21.63
2022-10-17T02:23:40.658Z,18.47
2022-10-17T02:26:07.421Z,17.80
2022-10-17T02:28:34.188Z,19.42
2022-10-17T02:31:00.965Z,20.37
2022-10-17T02:33:27.712Z,21.03
2022-10-17T02:35:54.457Z,21.22
2022-10-17T02:38:21.203Z,21.44
2022-10-17T02:40:47.975Z,21.42
2022-10-17T02:43:14.767Z,21.60
2022-10-17T02:45:41.536Z,21.74
2022-10-17T02:48:08.354Z,21.83
2022-10-17T02:50:35.176Z,21.74
2022-10-17T02:53:01.921Z,21.78
2022-10-17T02:55:28.669Z,22.03
2022-10-17T02:57:55.408Z,22.05
2022-10-17T03:00:22.192Z,19.87
2022-10-17T03:02:48.956Z,18.13
2022-10-17T03:05:15.717Z,17.75
2022-10-17T03:07:42.461Z,19.43
2022-10-17T03:10:09.248Z,20.20
2022-10-17T03:12:35.987Z,20.92
2022-10-17T03:15:02.795Z,21.14
2022-10-17T03:17:29.568Z,21.49
2022-10-17T03:19:56.311Z,21.62
2022-10-17T03:22:23.133Z,21.58
2022-10-17T03:24:50.357Z,21.76
2022-10-17T03:27:17.114Z,21.74
2022-10-17T03:29:43.878Z,21.75
2022-10-17T03:32:10.677Z,21.97
2022-10-17T03:34:37.425Z,21.86
2022-10-17T03:37:04.179Z,22.07
2022-10-17T03:39:30.942Z,20.53
2022-10-17T03:41:57.689Z,18.28
2022-10-17T03:44:24.437Z,17.35
2022-10-17T03:46:51.272Z,19.15
2022-10-17T03:49:18.007Z,20.03
2022-10-17T03:51:44.758Z,20.70
2022-10-17T03:54:11.511Z,21.00
2022-10-17T03:56:38.289Z,21.18
2022-10-17T03:59:05.072Z,21.36
2022-10-17T04:01:32.033Z,21.52
2022-10-17T04:03:58.881Z,21.68
2022-10-17T04:06:25.625Z,21.65
2022-10-17T04:08:52.388Z,21.70
2022-10-17T04:11:19.170Z,21.78
2022-10-17T04:13:45.968Z,22.09
2022-10-17T04:16:12.764Z,22.03
2022-10-17T04:18:39.548Z,22.13
2022-10-17T04:21:06.671Z,19.61
2022-10-17T04:23:33.431Z,17.95
2022-10-17T04:26:00.173Z,17.95
2022-10-17T04:28:27.001Z,19.37
2022-10-17T04:30:54.180Z,20.29
2022-10-17T04:33:20.967Z,20.82
2022-10-17T04:35:47.717Z,21.14
2022-10-17T04:38:14.472Z,21.29
2022-10-17T04:40:41.244Z,21.42
2022-10-17T04:43:07.985Z,21.67
2022-10-17T04:45:34.746Z,21.69
2022-10-17T04:48:01.497Z,21.69
2022-10-17T04:50:28.242Z,21.75
2022-10-17T04:52:55.004Z,21.81
2022-10-17T04:55:21.746Z,22.06
2022-10-17T04:57:48.488Z,22.06
2022-10-17T05:00:15.337Z,21.91
2022-10-17T05:02:42.080Z,18.81
2022-10-17T05:05:08.838Z,17.44
2022-10-17T05:07:35.604Z,18.78
2022-10-17T05:10:02.638Z,20.02
2022-10-17T05:12:29.641Z,20.88
2022-10-17T05:14:56.544Z,21.13
2022-10-17T05:17:23.338Z,21.23
2022-10-17T05:19:50.091Z,21.41
2022-10-17T05:22:16.839Z,21.47
2022-10-17T05:24:43.625Z,21.62
2022-10-17T05:27:10.369Z,21.66
2022-10-17T05:29:37.349Z,21.72
2022-10-17T05:32:04.109Z,21.87
2022-10-17T05:34:30.856Z,21.91
2022-10-17T05:36:57.629Z,21.93
2022-10-17T05:39:24.373Z,22.12
2022-10-17T05:41:52.330Z,21.35
2022-10-17T05:44:19.097Z,18.59
2022-10-17T05:46:45.844Z,17.44
2022-10-17T05:49:19.650Z,18.90
2022-10-17T05:51:58.605Z,20.03
2022-10-17T05:54:25.332Z,20.67
2022-10-17T05:56:52.252Z,21.16
2022-10-17T05:59:19.019Z,21.18
2022-10-17T06:01:45.798Z,21.42
2022-10-17T06:04:12.618Z,21.65
2022-10-17T06:06:39.371Z,21.74
2022-10-17T06:09:06.144Z,21.65
2022-10-17T06:11:32.890Z,21.86
2022-10-17T06:13:59.653Z,21.82
2022-10-17T06:16:26.405Z,22.09
2022-10-17T06:18:53.151Z,21.93
2022-10-17T06:21:19.905Z,21.89
2022-10-17T06:23:46.863Z,19.07
2022-10-17T06:26:13.654Z,19.03
2022-10-17T06:28:40.802Z,20.34
2022-10-17T06:31:07.647Z,21.00
2022-10-17T06:33:34.401Z,21.53
2022-10-17T06:36:01.161Z,21.65
2022-10-17T06:38:27.916Z,21.68
2022-10-17T06:40:57.328Z,21.69
2022-10-17T06:43:28.007Z,21.85
2022-10-17T06:45:54.884Z,22.06
2022-10-17T06:48:21.622Z,22.03
2022-10-17T06:50:48.374Z,22.20
2022-10-17T06:53:15.122Z,19.45
2022-10-17T06:55:42.801Z,19.01
2022-10-17T06:58:09.569Z,19.85
2022-10-17T07:00:36.482Z,20.99
2022-10-17T07:03:03.325Z,21.25
2022-10-17T07:05:30.096Z,21.48
2022-10-17T07:07:56.845Z,21.62
2022-10-17T07:10:23.610Z,21.80
2022-10-17T07:12:50.387Z,21.80
2022-10-17T07:15:17.208Z,22.02
2022-10-17T07:17:43.989Z,21.78
2022-10-17T07:20:10.793Z,18.96
2022-10-17T07:22:37.548Z,18.86
2022-10-17T07:25:04.312Z,20.47
2022-10-17T07:27:31.230Z,21.28
2022-10-17T07:29:58.154Z,21.47
2022-10-17T07:32:25.017Z,21.45
2022-10-17T07:34:51.867Z,21.73
2022-10-17T07:37:18.695Z,21.69
2022-10-17T07:39:45.516Z,21.88
2022-10-17T07:42:12.340Z,21.91
2022-10-17T07:44:39.109Z,21.98
2022-10-17T07:47:05.885Z,19.91
2022-10-17T07:49:32.724Z,19.18
2022-10-17T07:51:59.500Z,19.62
2022-10-17T07:54:26.299Z,20.95
2022-10-17T07:56:53.057Z,21.34
2022-10-17T07:59:19.817Z,21.47
2022-10-17T08:01:46.592Z,21.82
2022-10-17T08:04:13.345Z,21.80
2022-10-17T08:06:40.083Z,21.97
2022-10-17T08:09:06.970Z,21.95
2022-10-17T08:11:34.566Z,22.18
2022-10-17T08:14:01.305Z,19.85
2022-10-17T08:16:28.045Z,19.26
2022-10-17T08:18:54.898Z,19.89
2022-10-17T08:21:21.714Z,21.00
2022-10-17T08:23:48.473Z,21.59
2022-10-17T08:26:17.390Z,21.55
2022-10-17T08:28:44.326Z,21.62
2022-10-17T08:31:11.311Z,21.68
2022-10-17T08:33:38.085Z,22.00
2022-10-17T08:36:04.827Z,21.99
2022-10-17T08:38:35.151Z,22.11
2022-10-17T08:41:02.490Z,19.96
2022-10-17T08:43:33.272Z,19.28
2022-10-17T08:46:03.083Z,19.83
2022-10-17T08:48:29.878Z,21.33
2022-10-17T08:50:56.738Z,21.53
2022-10-17T08:53:23.815Z,21.67
2022-10-17T08:55:50.612Z,21.84
2022-10-17T08:58:17.362Z,22.03
2022-10-17T09:00:46.110Z,22.09
2022-10-17T09:03:12.904Z,21.21
2022-10-17T09:05:39.716Z,21.88
2022-10-17T09:08:06.459Z,22.23
2022-10-17T09:10:33.222Z,21.44
2022-10-17T09:13:02.836Z,22.08
2022-10-17T09:15:33.504Z,21.95
2022-10-17T09:18:00.275Z,21.73
2022-10-17T09:20:27.125Z,22.18
2022-10-17T09:22:53.950Z,20.27
2022-10-17T09:25:20.996Z,18.78
2022-10-17T09:27:47.897Z,18.92
2022-10-17T09:30:21.453Z,20.88
2022-10-17T09:33:00.186Z,21.45
2022-10-17T09:35:26.992Z,21.71
2022-10-17T09:37:53.778Z,21.75
2022-10-17T09:40:20.726Z,21.92
2022-10-17T09:42:47.460Z,22.22
2022-10-17T09:45:14.206Z,20.57
2022-10-17T09:47:41.306Z,18.90
2022-10-17T09:50:08.180Z,19.34
2022-10-17T09:52:34.952Z,21.13
2022-10-17T09:55:01.739Z,21.56
2022-10-17T09:57:28.501Z,21.65
2022-10-17T09:59:55.253Z,21.88
2022-10-17T10:02:22.058Z,22.03
2022-10-17T10:05:03.859Z,21.91
2022-10-17T10:07:31.684Z,20.54
2022-10-17T10:09:58.497Z,18.89
2022-10-17T10:12:25.340Z,18.91
2022-10-17T10:14:54.711Z,20.90
2022-10-17T10:17:22.128Z,21.45
2022-10-17T10:19:48.906Z,21.74
2022-10-17T10:22:15.739Z,21.76
2022-10-17T10:24:42.485Z,21.87
2022-10-17T10:27:09.233Z,22.07
2022-10-17T10:29:36.004Z,22.00
2022-10-17T10:32:02.763Z,21.67
2022-10-17T10:34:29.559Z,21.87
2022-10-17T10:36:56.442Z,22.11
2022-10-17T10:39:23.196Z,19.65
2022-10-17T10:41:49.977Z,18.78
2022-10-17T10:44:16.748Z,19.91
2022-10-17T10:46:43.510Z,21.23
2022-10-17T10:49:10.268Z,21.54
2022-10-17T10:51:37.025Z,21.58
2022-10-17T10:54:03.822Z,21.88
2022-10-17T10:56:30.589Z,22.04
2022-10-17T10:58:57.336Z,22.10
2022-10-17T11:01:24.269Z,20.33
2022-10-17T11:03:51.009Z,18.74
2022-10-17T11:06:17.827Z,19.52
2022-10-17T11:08:44.641Z,21.13
2022-10-17T11:11:13.757Z,21.57
2022-10-17T11:13:40.565Z,21.78
2022-10-17T11:16:07.328Z,21.86
2022-10-17T11:18:34.348Z,21.91
2022-10-17T11:21:01.142Z,22.02
2022-10-17T11:23:28.169Z,21.39
2022-10-17T11:25:54.912Z,19.11
2022-10-17T11:28:21.753Z,18.88
2022-10-17T11:30:48.550Z,20.70
2022-10-17T11:33:15.295Z,21.43
2022-10-17T11:35:42.047Z,21.73
2022-10-17T11:38:08.867Z,21.76
2022-10-17T11:40:35.628Z,21.89
2022-10-17T11:43:02.387Z,22.08
2022-10-17T11:45:29.188Z,21.98
2022-10-17T11:47:55.933Z,19.21
2022-10-17T11:53:09.755Z,20.60
2022-10-17T11:55:38.292Z,21.46
2022-10-17T11:58:05.466Z,21.73
2022-10-17T12:00:32.564Z,21.77
2022-10-17T12:02:59.441Z,21.80
2022-10-17T12:05:26.204Z,22.01
2022-10-17T12:07:53.097Z,22.05
2022-10-17T12:10:19.970Z,20.70
2022-10-17T12:12:48.086Z,19.08
2022-10-17T12:15:14.879Z,19.13
2022-10-17T12:17:41.706Z,20.95
2022-10-17T12:20:08.452Z,21.53
2022-10-17T12:22:35.210Z,21.67
2022-10-17T12:25:02.228Z,21.79
2022-10-17T12:27:29.165Z,21.98
2022-10-17T12:29:56.073Z,21.95
2022-10-17T12:32:22.828Z,22.15
2022-10-17T12:34:49.584Z,20.09
2022-10-17T12:37:16.384Z,18.87
2022-10-17T12:39:43.180Z,19.62
2022-10-17T12:42:09.930Z,21.32
2022-10-17T12:44:37.878Z,21.74
2022-10-17T12:47:04.640Z,21.72
2022-10-17T12:49:31.617Z,21.92
2022-10-17T12:51:58.377Z,22.00
2022-10-17T12:54:25.744Z,21.01
2022-10-17T12:56:52.503Z,19.01
2022-10-17T12:59:19.252Z,18.78
2022-10-17T13:01:46.361Z,20.71
2022-10-17T13:04:13.310Z,21.37
2022-10-17T13:06:40.320Z,21.65
2022-10-17T13:09:07.242Z,21.62
2022-10-17T13:11:33.985Z,21.99
2022-10-17T13:14:00.762Z,21.95
2022-10-17T13:16:27.561Z,22.06
2022-10-17T13:18:54.310Z,20.22
2022-10-17T13:21:21.666Z,18.81
2022-10-17T13:23:50.698Z,19.39
2022-10-17T13:26:19.972Z,21.14
2022-10-17T13:28:46.880Z,21.43
2022-10-17T13:31:13.761Z,21.86
2022-10-17T13:33:40.740Z,21.93
2022-10-17T13:36:07.529Z,22.07
2022-10-17T13:38:36.652Z,21.97
2022-10-17T13:41:30.546Z,21.98
2022-10-17T13:43:52.823Z,19.21
2022-10-17T13:46:36.905Z,18.61
2022-10-17T13:49:04.989Z,20.69
2022-10-17T13:51:31.756Z,21.55
2022-10-17T13:53:58.625Z,21.58
2022-10-17T13:56:29.925Z,21.67
2022-10-17T13:58:57.549Z,21.95
2022-10-17T14:01:24.318Z,22.07
2022-10-17T14:04:02.147Z,22.11
2022-10-17T14:06:34.896Z,20.68
2022-10-17T14:09:01.675Z,18.91
2022-10-17T14:11:28.536Z,19.21
2022-10-17T14:13:55.285Z,21.09
2022-10-17T14:16:22.086Z,21.53
2022-10-17T14:18:49.268Z,21.68
2022-10-17T14:21:44.951Z,21.68
2022-10-17T14:24:02.892Z,21.90
2022-10-17T14:26:29.732Z,22.00
2022-10-17T14:28:56.530Z,19.62
2022-10-17T14:31:25.595Z,18.73
2022-10-17T14:33:52.589Z,19.99
2022-10-17T14:36:19.539Z,21.21
2022-10-17T14:38:47.027Z,21.41
2022-10-17T14:44:00.678Z,21.91
2022-10-17T14:46:27.432Z,21.93
2022-10-17T14:48:54.578Z,22.08
2022-10-17T14:51:21.557Z,21.08
2022-10-17T14:53:48.305Z,18.76
2022-10-17T14:56:15.050Z,19.05
2022-10-17T14:58:41.809Z,20.82
2022-10-17T15:01:08.699Z,21.29
2022-10-17T15:03:35.502Z,21.60
2022-10-17T15:06:04.658Z,21.73
2022-10-17T15:08:31.496Z,21.78
2022-10-17T15:10:58.365Z,21.92
2022-10-17T15:13:27.963Z,21.87
2022-10-17T15:15:55.917Z,19.32
2022-10-17T15:18:22.672Z,18.61
2022-10-17T15:20:55.379Z,20.28
2022-10-17T15:23:31.571Z,21.28
2022-10-17T15:25:58.336Z,21.55
2022-10-17T15:28:25.119Z,21.82
2022-10-17T15:30:51.902Z,21.75
2022-10-17T15:33:18.674Z,21.98
2022-10-17T15:35:45.867Z,22.04
2022-10-17T15:38:12.641Z,20.94
2022-10-17T15:40:39.576Z,19.16
2022-10-17T15:43:06.329Z,18.86
2022-10-17T15:45:33.084Z,20.82
2022-10-17T15:47:59.917Z,21.37
2022-10-17T15:50:28.912Z,21.62
2022-10-17T15:52:55.657Z,21.80
2022-10-17T15:55:22.409Z,21.99
2022-10-17T15:57:49.168Z,21.88
2022-10-17T16:00:16.785Z,22.04
2022-10-17T16:02:43.647Z,21.17
2022-10-17T16:05:10.403Z,19.18
2022-10-17T16:07:37.148Z,18.85
2022-10-17T16:10:03.917Z,20.45
2022-10-17T16:12:33.592Z,21.27
2022-10-17T16:15:00.451Z,21.59
2022-10-17T16:17:27.390Z,21.82
2022-10-17T16:19:54.369Z,21.83
2022-10-17T16:22:21.106Z,21.89
2022-10-17T16:24:47.871Z,19.38
2022-10-17T16:27:14.646Z,18.82
2022-10-17T16:29:41.395Z,20.20
2022-10-17T16:32:08.144Z,21.08
2022-10-17T16:34:34.998Z,21.46
2022-10-17T16:37:01.784Z,21.69
2022-10-17T16:42:00.212Z,21.97
2022-10-17T16:44:26.983Z,22.06
2022-10-17T16:46:53.745Z,21.61
2022-10-17T16:49:20.519Z,19.36
2022-10-17T16:51:47.458Z,18.95
2022-10-17T16:54:14.240Z,20.57
2022-10-17T16:56:42.049Z,21.31
2022-10-17T16:59:08.814Z,21.67
2022-10-17T17:01:35.617Z,21.67
2022-10-17T17:04:04.428Z,21.84
2022-10-17T17:06:31.195Z,21.93
2022-10-17T17:08:57.995Z,22.13
2022-10-17T17:11:24.771Z,20.82
2022-10-17T17:13:51.513Z,18.92
2022-10-17T17:16:18.273Z,18.95
2022-10-17T17:18:45.970Z,20.75
2022-10-17T17:21:12.716Z,21.45
2022-10-17T17:23:39.563Z,21.64
2022-10-17T17:26:06.332Z,21.68
2022-10-17T17:28:33.092Z,21.79
2022-10-17T17:30:59.890Z,21.98
2022-10-17T17:33:26.785Z,22.12
2022-10-17T17:35:53.533Z,19.93
2022-10-17T17:38:20.280Z,18.97
2022-10-17T17:40:50.593Z,19.47
2022-10-17T17:43:17.862Z,21.01
2022-10-17T17:45:44.779Z,21.29
2022-10-17T17:48:12.209Z,21.60
2022-10-17T17:50:38.983Z,21.78
2022-10-17T17:53:05.789Z,21.97
2022-10-17T17:55:32.605Z,21.99
2022-10-17T17:57:59.344Z,22.26
2022-10-17T18:00:26.130Z,20.93
2022-10-17T18:02:52.976Z,19.02
2022-10-17T18:05:19.721Z,18.64
2022-10-17T18:07:46.490Z,20.36
2022-10-17T18:12:42.395Z,21.45
2022-10-17T18:15:09.161Z,21.57
2022-10-17T18:17:36.040Z,21.76
2022-10-17T18:20:03.399Z,21.78
2022-10-17T18:22:30.528Z,22.09
2022-10-17T18:24:57.495Z,21.81
2022-10-17T18:27:24.454Z,19.52
2022-10-17T18:29:51.522Z,18.86
2022-10-17T18:32:18.280Z,19.95
2022-10-17T18:34:45.032Z,20.99
2022-10-17T18:37:11.791Z,21.45
2022-10-17T18:39:38.563Z,21.51
2022-10-17T18:42:05.317Z,21.74
2022-10-17T18:44:32.118Z,21.81
2022-10-17T18:47:02.972Z,21.84
2022-10-17T18:49:31.116Z,22.17
2022-10-17T18:51:59.401Z,21.03
2022-10-17T18:54:26.180Z,18.97
2022-10-17T18:56:52.952Z,18.42
2022-10-17T18:59:19.708Z,20.43
2022-10-17T19:01:46.514Z,21.20
2022-10-17T19:04:13.470Z,21.59
2022-10-17T19:06:40.268Z,21.50
2022-10-17T19:09:07.078Z,21.89
2022-10-17T19:11:33.832Z,21.78
2022-10-17T19:14:00.662Z,22.00
2022-10-17T19:16:27.476Z,21.93
2022-10-17T19:18:54.377Z,19.84
2022-10-17T19:21:22.033Z,18.73
2022-10-17T19:23:49.217Z,19.18
2022-10-17T19:26:15.964Z,20.69
2022-10-17T19:28:43.179Z,21.25
2022-10-17T19:31:12.980Z,21.60
2022-10-17T19:33:42.158Z,21.68
2022-10-17T19:36:08.957Z,21.84
2022-10-17T19:38:35.731Z,21.98
2022-10-17T19:41:02.470Z,21.92
2022-10-17T19:43:29.284Z,21.97
2022-10-17T19:45:56.021Z,21.92
2022-10-17T19:48:22.816Z,19.33
2022-10-17T19:50:52.932Z,18.87
2022-10-17T19:53:19.764Z,20.02
2022-10-17T19:55:46.527Z,20.88
2022-10-17T19:58:13.368Z,21.46
2022-10-17T20:00:40.109Z,21.76
2022-10-17T20:03:06.853Z,21.81
2022-10-17T20:05:33.609Z,21.88
2022-10-17T20:08:00.346Z,21.91
2022-10-17T20:10:27.109Z,22.07
2022-10-17T20:12:53.896Z,20.03
2022-10-17T20:15:20.649Z,18.77
2022-10-17T20:17:47.481Z,18.86
2022-10-17T20:20:14.264Z,20.68
2022-10-17T20:22:41.085Z,21.20
2022-10-17T20:25:07.830Z,21.37
2022-10-17T20:27:34.585Z,21.56
2022-10-17T20:30:02.296Z,21.62
2022-10-17T20:32:29.272Z,21.86
2022-10-17T20:34:56.347Z,21.94
2022-10-17T20:37:23.094Z,22.14
2022-10-17T20:39:59.917Z,21.90
2022-10-17T20:42:36.900Z,19.12
2022-10-17T20:45:03.717Z,18.66
2022-10-17T20:47:44.225Z,19.66
2022-10-17T20:50:12.952Z,20.89
2022-10-17T20:52:39.697Z,21.29
2022-10-17T20:55:06.474Z,21.58
2022-10-17T20:57:33.241Z,21.71
2022-10-17T20:59:59.984Z,21.78
2022-10-17T21:02:26.737Z,21.95
2022-10-17T21:04:53.483Z,21.89
2022-10-17T21:07:22.070Z,21.94
2022-10-17T21:09:48.807Z,21.67
2022-10-17T21:12:25.799Z,18.98
2022-10-17T21:15:02.425Z,18.49
2022-10-17T21:17:29.196Z,20.03
2022-10-17T21:19:56.109Z,20.93
2022-10-17T21:22:22.904Z,21.26
2022-10-17T21:24:49.657Z,21.45
2022-10-17T21:27:16.405Z,21.77
2022-10-17T21:29:43.201Z,21.90
2022-10-17T21:32:19.485Z,21.96
2022-10-17T21:34:56.909Z,21.93
2022-10-17T21:37:23.663Z,22.11
2022-10-17T21:39:50.404Z,19.91
2022-10-17T21:42:17.135Z,18.58
2022-10-17T21:44:43.898Z,18.77
2022-10-17T21:47:10.641Z,20.40
2022-10-17T21:49:38.086Z,21.17
2022-10-17T21:52:07.101Z,21.33
2022-10-17T21:54:33.877Z,21.62
2022-10-17T21:57:00.613Z,21.66
2022-10-17T21:59:27.413Z,21.84
2022-10-17T22:01:54.248Z,21.76
2022-10-17T22:04:21.089Z,21.88
2022-10-17T22:06:47.849Z,21.95
2022-10-17T22:09:14.635Z,19.53
2022-10-17T22:11:41.562Z,18.59
2022-10-17T22:14:08.310Z,19.20
2022-10-17T22:16:35.057Z,20.64
2022-10-17T22:19:05.884Z,21.15
2022-10-17T22:21:33.437Z,21.35
2022-10-17T22:24:00.361Z,21.64
2022-10-17T22:26:27.110Z,21.62
2022-10-17T22:28:53.963Z,21.95
2022-10-17T22:31:20.772Z,21.94
2022-10-17T22:33:47.521Z,21.95
2022-10-17T22:36:14.294Z,22.15
2022-10-17T22:38:41.041Z,22.07
2022-10-17T22:41:07.787Z,20.65
2022-10-17T22:43:34.602Z,19.14
2022-10-17T22:46:01.349Z,18.93
2022-10-17T22:48:28.101Z,20.67
2022-10-17T22:50:54.862Z,21.15
2022-10-17T22:53:26.336Z,21.40
2022-10-17T22:55:53.076Z,21.58
2022-10-17T22:58:19.889Z,21.80
2022-10-17T23:00:46.641Z,21.77
2022-10-17T23:03:13.399Z,22.09
2022-10-17T23:05:40.205Z,22.17
2022-10-17T23:08:06.951Z,19.67
2022-10-17T23:10:33.738Z,18.69
2022-10-17T23:13:00.484Z,19.08
2022-10-17T23:15:27.246Z,20.56
2022-10-17T23:17:54.192Z,21.30
2022-10-17T23:20:20.999Z,21.39
2022-10-17T23:22:47.745Z,21.50
2022-10-17T23:25:14.493Z,21.63
2022-10-17T23:27:41.261Z,21.82
2022-10-17T23:30:08.004Z,21.82
2022-10-17T23:32:34.753Z,21.97
2022-10-17T23:35:01.654Z,20.93
2022-10-17T23:37:28.565Z,18.83
2022-10-17T23:39:55.576Z,18.62
2022-10-17T23:42:22.449Z,20.23
2022-10-17T23:44:49.244Z,20.90
2022-10-17T23:47:15.989Z,21.45
2022-10-17T23:49:42.789Z,21.43
2022-10-17T23:52:09.749Z,21.60
2022-10-17T23:54:36.530Z,21.68
2022-10-17T23:57:03.390Z,21.83
2022-10-17T23:59:30.161Z,21.85
